createdAt,value
2022-10-29T00:00:21.712Z,87.32
2022-10-29T00:05:24.818Z,87.34
2022-10-29T00:10:27.590Z,87.42
2022-10-29T00:15:30.211Z,87.45
2022-10-29T00:20:32.091Z,87.47
2022-10-29T00:25:34.270Z,87.45
2022-10-29T00:30:36.656Z,87.45
2022-10-29T00:35:38.742Z,87.51
2022-10-29T00:40:40.625Z,87.59
2022-10-29T00:45:49.085Z,87.60
2022-10-29T00:50:53.455Z,87.48
2022-10-29T00:55:55.574Z,87.37
2022-10-29T01:00:57.552Z,87.37
2022-10-29T01:06:01.375Z,87.48
2022-10-29T01:11:12.205Z,87.56
2022-10-29T01:16:26.331Z,87.50
2022-10-29T01:21:39.376Z,87.61
2022-10-29T01:27:29.578Z,87.68
2022-10-29T01:32:36.370Z,87.66
2022-10-29T01:38:11.553Z,87.66
2022-10-29T01:43:28.658Z,87.62
2022-10-29T01:48:35.463Z,87.54
2022-10-29T01:53:38.766Z,87.53
2022-10-29T01:58:47.211Z,87.64
2022-10-29T02:04:02.385Z,87.74
2022-10-29T02:09:17.060Z,87.83
2022-10-29T02:14:50.684Z,87.94
2022-10-29T02:19:52.560Z,87.97
2022-10-29T02:24:54.334Z,87.89
2022-10-29T02:29:56.215Z,87.76
2022-10-29T02:34:58.094Z,87.68
2022-10-29T02:39:59.970Z,87.78
2022-10-29T02:45:01.939Z,87.83
2022-10-29T02:50:04.254Z,87.79
2022-10-29T02:55:06.832Z,87.83
2022-10-29T03:00:09.432Z,87.93
2022-10-29T03:05:11.300Z,87.95
2022-10-29T03:10:13.182Z,87.85
2022-10-29T03:15:15.158Z,87.70
2022-10-29T03:20:16.938Z,87.56
2022-10-29T03:25:18.813Z,87.39
2022-10-29T03:30:20.683Z,87.27
2022-10-29T03:35:22.567Z,87.25
2022-10-29T03:40:24.441Z,87.29
2022-10-29T03:45:26.628Z,87.35
2022-10-29T03:50:28.504Z,87.36
2022-10-29T03:55:31.338Z,87.42
2022-10-29T04:00:33.153Z,87.44
2022-10-29T04:05:34.942Z,87.43
2022-10-29T04:10:36.849Z,87.31
2022-10-29T04:15:38.712Z,87.25
2022-10-29T04:20:47.680Z,87.26
2022-10-29T04:28:17.501Z,87.34
2022-10-29T04:31:25.194Z,87.40
2022-10-29T04:36:27.077Z,87.37
2022-10-29T04:41:28.848Z,87.26
2022-10-29T04:46:30.727Z,87.16
2022-10-29T04:51:32.607Z,87.04
2022-10-29T04:56:34.485Z,87.05
2022-10-29T05:06:43.255Z,87.11
2022-10-29T05:11:45.136Z,87.12
2022-10-29T05:16:47.014Z,87.14
2022-10-29T05:21:48.883Z,87.16
2022-10-29T05:26:50.662Z,87.20
2022-10-29T05:31:55.506Z,87.24
2022-10-29T05:36:57.385Z,87.26
2022-10-29T05:41:59.262Z,87.12
2022-10-29T05:47:01.042Z,87.04
2022-10-29T05:52:02.968Z,87.06
2022-10-29T05:57:04.792Z,87.17
2022-10-29T06:02:06.815Z,87.21
2022-10-29T06:07:08.754Z,87.08
2022-10-29T06:12:10.634Z,86.96
2022-10-29T06:17:12.406Z,86.94
2022-10-29T06:22:14.456Z,86.85
2022-10-29T06:27:16.361Z,86.62
2022-10-29T06:32:18.344Z,86.40
2022-10-29T06:37:20.160Z,86.14
2022-10-29T06:42:21.916Z,85.93
2022-10-29T06:47:23.767Z,85.75
2022-10-29T06:52:25.548Z,85.59
2022-10-29T06:57:27.328Z,85.46
2022-10-29T07:02:29.201Z,85.34
2022-10-29T07:07:31.023Z,85.25
2022-10-29T07:12:39.970Z,85.14
2022-10-29T07:17:42.311Z,85.02
2022-10-29T07:22:48.279Z,84.83
2022-10-29T07:27:50.662Z,84.69
2022-10-29T07:32:52.622Z,84.59
2022-10-29T07:38:03.830Z,84.29
2022-10-29T07:43:12.145Z,83.76
2022-10-29T07:48:14.060Z,83.08
2022-10-29T07:53:16.298Z,82.61
2022-10-29T07:58:18.018Z,82.18
2022-10-29T08:03:19.889Z,81.74
2022-10-29T08:08:21.637Z,81.25
2022-10-29T08:13:23.437Z,80.72
2022-10-29T08:18:25.519Z,80.10
2022-10-29T08:23:27.295Z,79.24
2022-10-29T08:28:31.687Z,78.34
2022-10-29T08:33:35.964Z,77.57
2022-10-29T08:38:37.743Z,77.34
2022-10-29T08:44:07.313Z,76.80
2022-10-29T08:49:21.836Z,75.78
2022-10-29T08:54:31.755Z,74.16
2022-10-29T08:59:40.318Z,73.25
2022-10-29T09:04:42.100Z,72.10
2022-10-29T09:10:06.849Z,70.55
2022-10-29T09:15:26.214Z,70.04
2022-10-29T09:20:51.953Z,69.99
2022-10-29T09:26:15.882Z,69.51
2022-10-29T09:31:34.616Z,69.07
2022-10-29T09:36:37.005Z,67.41
2022-10-29T09:41:39.912Z,67.49
2022-10-29T09:47:03.304Z,67.23
2022-10-29T09:52:17.557Z,66.11
2022-10-29T09:57:31.910Z,65.20
2022-10-29T10:02:45.347Z,64.79
2022-10-29T10:08:08.657Z,64.77
2022-10-29T10:13:17.029Z,65.59
2022-10-29T10:18:20.198Z,65.96
2022-10-29T10:23:42.451Z,66.37
2022-10-29T10:28:44.535Z,66.22
2022-10-29T10:33:54.810Z,66.03
2022-10-29T10:39:00.024Z,65.64
2022-10-29T10:44:04.603Z,65.92
2022-10-29T10:49:12.146Z,65.77
2022-10-29T10:54:32.548Z,65.24
2022-10-29T10:59:40.339Z,65.58
2022-10-29T11:04:44.259Z,65.52
2022-10-29T11:09:51.043Z,65.24
2022-10-29T11:15:04.461Z,64.81
2022-10-29T11:20:16.558Z,64.66
2022-10-29T11:25:21.881Z,64.54
2022-10-29T11:30:23.861Z,64.03
2022-10-29T11:35:44.881Z,64.13
2022-10-29T11:40:59.667Z,63.66
2022-10-29T11:46:19.771Z,63.83
2022-10-29T11:51:34.141Z,64.25
2022-10-29T11:56:59.771Z,64.78
2022-10-29T12:02:10.768Z,65.04
2022-10-29T12:07:57.540Z,64.69
2022-10-29T12:13:34.941Z,63.41
2022-10-29T12:18:51.527Z,62.68
2022-10-29T12:24:25.750Z,62.63
2022-10-29T12:30:03.042Z,63.44
2022-10-29T12:35:16.008Z,63.59
2022-10-29T12:40:28.498Z,63.32
2022-10-29T12:46:06.759Z,63.05
2022-10-29T12:51:42.480Z,62.90
2022-10-29T12:56:47.787Z,62.68
2022-10-29T13:12:59.889Z,62.94
2022-10-29T13:18:28.263Z,62.62
2022-10-29T13:23:37.717Z,62.62
2022-10-29T13:28:39.715Z,62.82
2022-10-29T13:33:41.494Z,63.02
2022-10-29T13:39:07.564Z,63.02
2022-10-29T13:44:17.417Z,63.04
2022-10-29T13:49:29.622Z,62.90
2022-10-29T13:54:46.241Z,63.32
2022-10-29T13:59:55.392Z,63.96
2022-10-29T14:05:06.289Z,64.51
2022-10-29T14:10:18.979Z,65.32
2022-10-29T14:15:20.892Z,66.19
2022-10-29T14:20:28.807Z,66.81
2022-10-29T14:25:35.775Z,67.32
2022-10-29T14:30:37.477Z,67.87
2022-10-29T14:35:39.865Z,68.37
2022-10-29T14:40:44.937Z,68.98
2022-10-29T14:45:46.798Z,69.43
2022-10-29T14:50:51.486Z,70.07
2022-10-29T14:55:53.727Z,70.59
2022-10-29T15:00:58.778Z,71.06
2022-10-29T15:06:18.975Z,71.47
2022-10-29T15:11:38.579Z,71.94
2022-10-29T15:16:42.398Z,72.36
2022-10-29T15:21:45.400Z,72.67
2022-10-29T15:26:58.869Z,72.92
2022-10-29T15:32:00.935Z,73.24
2022-10-29T15:37:23.768Z,73.72
2022-10-29T15:42:28.647Z,74.25
2022-10-29T15:47:30.731Z,74.56
2022-10-29T15:53:01.962Z,75.00
2022-10-29T15:58:05.619Z,75.60
2022-10-29T16:03:15.483Z,76.15
2022-10-29T16:08:30.160Z,76.50
2022-10-29T16:13:32.961Z,77.08
2022-10-29T16:18:34.940Z,77.41
2022-10-29T16:23:38.661Z,77.72
2022-10-29T16:28:40.527Z,78.05
2022-10-29T16:33:42.338Z,78.32
2022-10-29T16:38:44.396Z,78.49
2022-10-29T16:43:47.654Z,78.81
2022-10-29T16:48:49.477Z,79.11
2022-10-29T16:53:53.102Z,79.18
2022-10-29T16:59:01.799Z,79.34
2022-10-29T17:04:04.322Z,79.51
2022-10-29T17:09:07.126Z,79.68
2022-10-29T17:14:09.007Z,79.85
2022-10-29T17:19:10.885Z,79.99
2022-10-29T17:24:12.861Z,80.09
2022-10-29T17:29:14.850Z,80.48
2022-10-29T17:34:16.730Z,80.89
2022-10-29T17:39:18.524Z,81.20
2022-10-29T17:44:20.579Z,81.67
2022-10-29T17:49:22.659Z,82.00
2022-10-29T17:54:24.842Z,82.10
2022-10-29T17:59:26.820Z,82.35
2022-10-29T18:04:28.579Z,82.69
2022-10-29T18:09:30.577Z,82.86
2022-10-29T18:14:32.302Z,83.05
2022-10-29T18:19:34.127Z,83.12
2022-10-29T18:24:36.008Z,83.12
2022-10-29T18:29:37.885Z,83.21
2022-10-29T18:34:39.763Z,83.30
2022-10-29T18:39:41.728Z,83.40
2022-10-29T18:44:43.619Z,83.33
2022-10-29T18:49:45.597Z,83.37
2022-10-29T18:54:47.457Z,83.57
2022-10-29T18:59:49.661Z,83.68
2022-10-29T19:04:51.485Z,83.77
2022-10-29T19:09:53.318Z,83.76
2022-10-29T19:14:55.187Z,83.79
2022-10-29T19:20:04.646Z,83.90
2022-10-29T19:25:07.026Z,84.10
2022-10-29T19:30:09.633Z,84.41
2022-10-29T19:35:11.729Z,84.82
2022-10-29T19:40:13.586Z,85.23
2022-10-29T19:45:15.505Z,85.47
2022-10-29T19:50:17.512Z,85.58
2022-10-29T19:55:19.423Z,85.65
2022-10-29T20:00:21.200Z,85.62
2022-10-29T20:05:23.105Z,85.55
2022-10-29T20:10:25.156Z,85.49
2022-10-29T20:15:27.856Z,85.41
2022-10-29T20:20:29.833Z,85.38
2022-10-29T20:25:31.706Z,85.36
2022-10-29T20:30:33.688Z,85.29
2022-10-29T20:35:35.566Z,85.19
2022-10-29T20:40:37.439Z,85.13
2022-10-29T20:45:39.266Z,85.15
2022-10-29T20:50:41.200Z,85.11
2022-10-29T20:55:43.075Z,85.12
2022-10-29T21:00:45.024Z,85.19
2022-10-29T21:05:46.910Z,85.23
2022-10-29T21:10:48.809Z,85.21
2022-10-29T21:15:51.409Z,85.29
2022-10-29T21:20:53.283Z,85.37
2022-10-29T21:25:55.160Z,85.37
2022-10-29T21:30:59.286Z,85.29
2022-10-29T21:36:01.163Z,85.25
2022-10-29T21:41:03.043Z,85.27
2022-10-29T21:46:05.124Z,85.25
2022-10-29T21:51:12.536Z,85.24
2022-10-29T21:56:15.230Z,85.16
2022-10-29T22:01:17.488Z,85.06
2022-10-29T22:06:22.138Z,85.04
2022-10-29T22:11:25.062Z,85.02
2022-10-29T22:16:27.039Z,84.88
2022-10-29T22:21:29.019Z,84.80
2022-10-29T22:26:31.204Z,84.82
2022-10-29T22:31:33.115Z,84.88
2022-10-29T22:36:34.957Z,84.87
2022-10-29T22:41:36.788Z,84.93
2022-10-29T22:46:38.715Z,84.95
2022-10-29T22:51:40.694Z,85.14
2022-10-29T22:56:42.567Z,85.41
2022-10-29T23:01:45.763Z,85.55
2022-10-29T23:06:47.903Z,85.66
2022-10-29T23:11:51.244Z,85.79
2022-10-29T23:16:53.150Z,86.03
2022-10-29T23:21:55.029Z,86.19
2022-10-29T23:26:56.907Z,86.45
2022-10-29T23:31:59.166Z,86.60
2022-10-29T23:37:03.154Z,86.63
2022-10-29T23:42:07.552Z,86.70
2022-10-29T23:47:13.837Z,86.82
2022-10-29T23:52:16.452Z,87.00
2022-10-29T23:57:18.511Z,87.15
